Terminal Aerodrome Forecast
Issued by NWS

Home | Current Version | Previous Version | Text Only | Print | Product List | Glossary On
Versions: 1 2 3 4 5 6 7 8 9 10 11 12 13 14 15 16 17
000
FTUS46 KMFR 281146
TAFOTH
TAF
KOTH 281146Z 2812/2912 26004KT 1 1/2SM BR OVC002
     FM281900 27008KT 4SM BR OVC006
     FM282100 28006KT P6SM BKN015
     FM290100 27006KT 5SM BR OVC005=

USA.gov is the U.S. government's official web portal to all federal, state and local government web resources and services.